Time;durP1;ratioP1;P1;durP2;ratioP2;P2;SDS_P1;SDS_P2;PMS_P1;PMS_P2;Temp;Humidity;BMP_temperature;BMP_pressure;BME280_temperature;BME280_humidity;BME280_pressure;Samples;Min_cycle;Max_cycle;Signal;HPM_P1;HPM_P2
2021/01/28 00:00:44;;;;;;;17.00;15.30;;;1.40;99.90;;;2.11;99.06;97662.09;5252228;28;20208;-77
2021/01/28 00:03:17;;;;;;;15.93;14.33;;;1.40;99.90;;;2.12;98.44;97661.34;5247733;28;20276;-77
2021/01/28 00:05:50;;;;;;;15.57;13.97;;;1.40;99.90;;;2.12;99.22;97656.31;5252924;28;20231;-76
2021/01/28 00:08:22;;;;;;;17.07;15.40;;;1.40;99.90;;;2.16;99.41;97651.66;5239488;28;20204;-77
2021/01/28 00:10:54;;;;;;;17.07;15.40;;;1.40;99.90;;;2.16;99.45;97654.19;5248248;28;20200;-76
2021/01/28 00:13:26;;;;;;;16.40;14.70;;;1.50;99.90;;;2.15;98.97;97654.94;5253164;28;20201;-77
2021/01/28 00:15:58;;;;;;;16.83;15.10;;;1.50;99.90;;;2.17;98.85;97650.91;5252124;28;20247;-78
2021/01/28 00:18:32;;;;;;;16.30;14.60;;;1.40;99.90;;;2.18;99.06;97652.69;5235829;28;20602;-78
2021/01/28 00:21:05;;;;;;;17.43;15.63;;;1.40;99.90;;;2.24;99.66;97649.81;5246896;28;20304;-77
2021/01/28 00:23:37;;;;;;;22.13;18.43;;;1.40;99.90;;;2.21;99.06;97644.50;5251103;28;20205;-77
2021/01/28 00:26:09;;;;;;;18.50;16.60;;;1.40;99.90;;;2.12;99.25;97653.78;5252850;28;20228;-77
2021/01/28 00:28:41;;;;;;;17.63;15.83;;;1.40;99.90;;;2.13;99.47;97655.56;5253230;28;20200;-77
2021/01/28 00:31:13;;;;;;;17.27;15.47;;;1.40;99.90;;;2.12;99.24;97656.31;5247475;28;20193;-76
2021/01/28 00:33:46;;;;;;;16.27;14.57;;;1.40;99.90;;;2.13;99.14;97658.97;5239667;28;20197;-77
2021/01/28 00:36:19;;;;;;;17.50;15.53;;;1.40;99.90;;;2.11;99.12;97655.41;5243847;28;20223;-77
2021/01/28 00:38:51;;;;;;;17.63;15.83;;;1.40;99.90;;;2.16;99.59;97649.16;5251680;28;20223;-77
2021/01/28 00:41:33;;;;;;;20.83;18.60;;;1.40;99.90;;;2.21;98.85;97645.38;5240014;28;20209;-77
2021/01/28 00:44:06;;;;;;;24.30;21.33;;;1.40;99.90;;;2.19;98.65;97649.41;5233071;28;20232;-76
2021/01/28 00:46:38;;;;;;;24.23;19.37;;;1.30;99.90;;;2.17;99.57;97643.34;5241204;28;20232;-78
2021/01/28 00:49:11;;;;;;;20.67;17.23;;;1.40;99.90;;;2.09;98.98;97644.34;5233537;28;20200;-78
2021/01/28 00:51:43;;;;;;;18.80;16.33;;;1.30;99.90;;;2.06;99.41;97646.59;5245443;28;20200;-77
2021/01/28 00:54:15;;;;;;;17.50;15.07;;;1.30;99.90;;;2.04;99.40;97653.13;5253522;28;20203;-76
2021/01/28 00:56:47;;;;;;;19.43;15.90;;;1.30;99.90;;;2.06;99.47;97638.13;5240480;28;20263;-77
2021/01/28 00:59:19;;;;;;;18.27;16.37;;;1.30;99.90;;;2.09;99.42;97641.81;5232678;28;20201;-77
2021/01/28 01:01:52;;;;;;;16.77;14.97;;;1.40;99.90;;;2.10;99.66;97637.66;5232774;28;20192;-77
2021/01/28 01:04:26;;;;;;;17.97;16.03;;;1.40;99.90;;;2.07;99.58;97628.19;5233583;28;20240;-77
2021/01/28 01:06:58;;;;;;;17.33;14.93;;;1.40;99.90;;;2.01;99.38;97618.47;5241802;28;20217;-78
2021/01/28 01:09:30;;;;;;;14.70;13.07;;;1.30;99.90;;;2.06;98.88;97620.50;5246521;28;20762;-76
2021/01/28 01:12:03;;;;;;;16.43;14.70;;;1.30;99.90;;;2.09;99.49;97619.13;5236494;28;20204;-77
2021/01/28 01:14:35;;;;;;;17.13;14.27;;;1.40;99.90;;;2.12;99.25;97621.91;5246594;28;20279;-77
2021/01/28 01:17:07;;;;;;;14.90;13.50;;;1.40;99.90;;;2.14;99.90;97624.56;5254324;28;20250;-76
2021/01/28 01:19:42;;;;;;;16.43;14.73;;;1.40;99.90;;;2.16;99.51;97628.09;5257166;28;20192;-77
2021/01/28 01:22:15;;;;;;;15.17;13.57;;;1.40;99.90;;;2.09;99.87;97616.63;5248595;28;20216;-77
2021/01/28 01:24:47;;;;;;;15.57;13.77;;;1.30;99.90;;;2.07;98.96;97603.00;5237091;28;20205;-77
2021/01/28 01:27:19;;;;;;;14.47;13.07;;;1.30;99.90;;;2.08;99.57;97599.72;5236732;28;20510;-76
2021/01/28 01:29:51;;;;;;;14.53;12.87;;;1.40;99.90;;;2.12;99.69;97594.19;5235975;28;20258;-77
2021/01/28 01:32:24;;;;;;;15.17;13.63;;;1.40;99.90;;;2.15;99.88;97602.00;5235413;28;20198;-78
2021/01/28 01:34:58;;;;;;;15.50;13.90;;;1.40;99.90;;;2.17;99.96;97594.56;5236751;28;20236;-77
2021/01/28 01:37:30;;;;;;;15.17;13.67;;;1.40;99.90;;;2.17;99.24;97595.44;5239361;28;20204;-77
2021/01/28 01:40:03;;;;;;;14.80;13.20;;;1.40;99.90;;;2.18;99.39;97596.34;5256955;28;20227;-77
2021/01/28 01:42:35;;;;;;;14.90;13.40;;;1.40;99.90;;;2.18;99.63;97597.22;5253863;28;20195;-77
2021/01/28 01:45:10;;;;;;;14.57;13.17;;;1.40;99.90;;;2.16;99.93;97593.69;5256304;28;20297;-76
2021/01/28 01:47:48;;;;;;;14.03;12.57;;;1.40;99.90;;;2.17;99.34;97590.41;5243368;28;20248;-78
2021/01/28 01:50:33;;;;;;;16.90;14.73;;;1.40;99.90;;;2.17;99.22;97579.44;5235223;28;20662;-77
2021/01/28 01:53:12;;;;;;;17.60;14.83;;;1.20;99.90;;;2.09;98.90;97578.81;5235367;28;20225;-77
2021/01/28 01:55:49;;;;;;;22.03;16.97;;;1.20;99.90;;;2.07;99.15;97580.31;5243093;28;20251;-77
2021/01/28 01:58:39;;;;;;;17.50;15.53;;;1.20;99.90;;;1.95;98.06;97569.19;5235383;28;20254;-77
2021/01/28 02:01:12;;;;;;;15.47;13.77;;;1.20;99.90;;;1.96;99.16;97568.44;5234601;28;20243;-77
2021/01/28 02:03:45;;;;;;;17.87;15.97;;;1.20;99.90;;;1.96;98.92;97555.84;5234892;28;20291;-78
2021/01/28 02:06:25;;;;;;;16.63;14.93;;;1.20;99.90;;;1.99;99.11;97568.69;5235848;28;20289;-77
2021/01/28 02:08:58;;;;;;;16.33;14.57;;;1.30;99.90;;;1.93;99.15;97553.94;5238988;28;20183;-78
2021/01/28 02:11:31;;;;;;;15.67;13.67;;;1.30;99.90;;;1.95;99.59;97546.53;5255818;28;20638;-78
2021/01/28 02:14:05;;;;;;;16.77;14.27;;;1.20;99.90;;;1.96;98.93;97550.78;5255357;28;20591;-77
2021/01/28 02:16:41;;;;;;;15.83;14.27;;;1.20;99.90;;;1.98;99.26;97539.22;5252204;28;20221;-78
2021/01/28 02:19:39;;;;;;;14.87;13.37;;;1.20;99.90;;;1.99;99.66;97546.00;5234411;28;20197;-77
2021/01/28 02:22:13;;;;;;;14.27;12.77;;;1.30;99.90;;;2.07;99.23;97537.47;5235316;28;20205;-77
2021/01/28 02:24:50;;;;;;;13.80;12.50;;;1.30;99.90;;;2.11;99.22;97533.56;5238205;28;20654;-77
2021/01/28 02:27:24;;;;;;;13.53;12.13;;;1.40;99.90;;;2.13;99.00;97532.94;5255429;28;20226;-77
2021/01/28 02:29:56;;;;;;;13.07;11.87;;;1.40;99.90;;;2.14;98.99;97536.31;5250744;28;20189;-78
2021/01/28 02:32:28;;;;;;;15.80;13.63;;;1.40;99.90;;;2.23;99.00;97529.53;5239425;28;20205;-76
2021/01/28 02:35:00;;;;;;;16.90;14.37;;;1.40;99.90;;;2.20;99.80;97526.75;5234370;28;20209;-77
2021/01/28 02:37:32;;;;;;;17.47;13.90;;;1.30;99.90;;;2.18;99.30;97519.06;5235845;28;20200;-78
2021/01/28 02:40:07;;;;;;;15.43;13.20;;;1.30;99.90;;;2.15;99.29;97508.75;5239888;28;20199;-76
2021/01/28 02:42:40;;;;;;;14.33;12.90;;;1.30;99.90;;;2.13;99.00;97506.84;5255505;28;20199;-77
2021/01/28 02:45:18;;;;;;;13.97;12.57;;;1.30;99.90;;;2.19;99.49;97508.22;5248220;28;20221;-77
2021/01/28 02:47:54;;;;;;;12.73;11.53;;;1.30;99.90;;;2.14;99.94;97509.47;5243119;28;20235;-77
2021/01/28 02:50:28;;;;;;;12.57;11.27;;;1.30;99.90;;;2.11;100.00;97503.31;5235662;28;20201;-77
2021/01/28 02:53:03;;;;;;;12.03;10.87;;;1.30;99.90;;;2.05;99.55;97498.63;5233980;28;20211;-77
2021/01/28 02:55:36;;;;;;;11.17;10.07;;;1.30;99.90;;;2.04;99.72;97501.91;5247032;28;20287;-77
2021/01/28 02:58:09;;;;;;;11.83;10.63;;;1.20;99.90;;;2.02;99.24;97501.78;5254373;28;20286;-77
2021/01/28 03:00:41;;;;;;;11.30;10.20;;;1.30;99.90;;;2.06;98.80;97500.41;5254058;28;20227;-77
2021/01/28 03:03:14;;;;;;;11.77;10.57;;;1.30;99.90;;;2.03;99.24;97500.13;5235913;28;20295;-78
2021/01/28 03:05:46;;;;;;;12.30;11.20;;;1.30;99.90;;;2.06;98.69;97494.47;5234995;28;20231;-78
2021/01/28 03:08:19;;;;;;;11.93;10.83;;;1.30;99.90;;;2.10;99.30;97488.94;5234978;28;20223;-79
2021/01/28 03:10:52;;;;;;;11.43;10.37;;;1.30;99.90;;;2.07;99.07;97487.06;5234287;28;20596;-77
2021/01/28 03:13:25;;;;;;;11.27;10.20;;;1.30;99.90;;;2.09;99.31;97480.50;5234264;28;20211;-77
2021/01/28 03:15:58;;;;;;;11.53;10.43;;;1.30;99.90;;;2.11;99.21;97473.06;5234753;28;20308;-77
2021/01/28 03:18:30;;;;;;;11.90;10.80;;;1.30;99.90;;;2.13;99.06;97469.91;5249614;28;20283;-77
2021/01/28 03:21:02;;;;;;;10.67;9.67;;;1.30;99.90;;;2.17;99.13;97464.34;5232935;28;20284;-77
2021/01/28 03:23:35;;;;;;;10.90;9.90;;;1.30;99.90;;;2.12;99.35;97460.59;5232717;28;20250;-77
2021/01/28 03:26:08;;;;;;;10.83;9.83;;;1.30;99.90;;;2.02;98.87;97455.53;5234161;28;20713;-78
2021/01/28 03:28:41;;;;;;;10.83;9.73;;;1.20;99.90;;;1.98;99.29;97448.50;5245579;28;20240;-78
2021/01/28 03:31:14;;;;;;;10.77;9.77;;;1.20;99.90;;;1.99;99.31;97447.72;5247119;28;20204;-77
2021/01/28 03:33:46;;;;;;;10.47;9.43;;;1.30;99.90;;;2.04;98.98;97446.47;5236260;28;20201;-78
2021/01/28 03:36:18;;;;;;;12.00;10.80;;;1.30;99.90;;;2.06;98.90;97447.50;5253519;28;20217;-78
2021/01/28 03:38:50;;;;;;;12.60;11.30;;;1.30;99.90;;;2.06;99.48;97444.97;5251734;28;20595;-77
2021/01/28 03:41:22;;;;;;;13.53;11.63;;;1.40;99.90;;;2.11;99.96;97448.72;5243321;28;20454;-77
2021/01/28 03:43:55;;;;;;;12.27;10.90;;;1.40;99.90;;;2.17;99.36;97450.88;5234432;28;20422;-78
2021/01/28 03:46:27;;;;;;;13.77;12.17;;;1.50;99.90;;;2.21;99.98;97446.22;5235056;28;20224;-78
2021/01/28 03:49:00;;;;;;;11.90;10.63;;;1.50;99.90;;;2.22;100.00;97430.31;5250151;28;20193;-77
2021/01/28 03:51:34;;;;;;;11.73;10.63;;;1.50;99.90;;;2.29;99.36;97433.34;5233756;28;20749;-77
2021/01/28 03:54:06;;;;;;;11.87;10.67;;;1.50;99.90;;;2.30;99.48;97430.09;5237917;28;20197;-79
2021/01/28 03:56:38;;;;;;;11.77;10.57;;;1.50;99.90;;;2.33;100.00;97416.06;5255218;28;20227;-78
2021/01/28 03:59:11;;;;;;;10.07;9.03;;;1.50;99.90;;;2.28;99.19;97416.47;5245313;28;20291;-77
2021/01/28 04:01:43;;;;;;;10.00;9.10;;;1.40;99.90;;;2.17;98.70;97400.47;5233333;28;20193;-77
2021/01/28 04:04:15;;;;;;;9.63;8.73;;;1.40;99.90;;;2.16;99.38;97394.53;5243308;28;20203;-78
2021/01/28 04:06:47;;;;;;;9.73;8.83;;;1.30;99.90;;;2.13;98.42;97394.28;5236373;28;20232;-78
2021/01/28 04:09:19;;;;;;;9.43;8.53;;;1.30;99.90;;;2.17;99.52;97378.66;5242533;28;20198;-77
2021/01/28 04:11:51;;;;;;;10.27;9.27;;;1.30;99.90;;;2.18;99.02;97362.78;5252490;28;20203;-78
2021/01/28 04:14:24;;;;;;;10.17;8.63;;;1.30;99.90;;;2.19;97.81;97351.94;5255208;28;20236;-77
2021/01/28 04:16:56;;;;;;;9.17;8.27;;;1.30;99.90;;;2.08;98.88;97342.63;5241568;28;20300;-77
2021/01/28 04:19:28;;;;;;;11.57;10.37;;;1.20;99.90;;;2.08;98.30;97337.56;5234477;28;20573;-77
2021/01/28 04:22:01;;;;;;;10.40;9.40;;;1.20;99.90;;;2.08;98.65;97324.97;5238725;28;20212;-77
2021/01/28 04:24:36;;;;;;;11.00;9.90;;;1.30;99.90;;;1.99;98.96;97321.72;5254855;28;20196;-77
2021/01/28 04:27:09;;;;;;;10.13;9.07;;;1.20;99.90;;;2.03;98.43;97321.19;5252438;28;20276;-77
2021/01/28 04:29:43;;;;;;;10.93;9.93;;;1.30;99.90;;;2.01;99.30;97322.75;5244566;28;20201;-77
2021/01/28 04:32:16;;;;;;;11.27;10.00;;;1.30;99.90;;;2.04;99.47;97312.91;5236407;28;20200;-79
2021/01/28 04:34:48;;;;;;;12.93;11.63;;;1.30;99.90;;;2.01;98.35;97302.56;5233204;28;20194;-78
2021/01/28 04:37:20;;;;;;;11.53;10.37;;;1.30;99.90;;;2.07;99.42;97307.22;5244177;28;20201;-77
2021/01/28 04:39:53;;;;;;;12.27;10.97;;;1.30;99.90;;;2.10;99.70;97310.88;5252781;28;20193;-77
2021/01/28 04:42:47;;;;;;;10.63;9.57;;;1.40;99.90;;;2.12;98.89;97306.84;5252220;28;20230;-78
2021/01/28 04:45:23;;;;;;;10.50;9.50;;;1.40;99.90;;;2.17;99.35;97303.03;5242986;28;20217;-77
2021/01/28 04:47:58;;;;;;;10.23;9.17;;;1.40;99.90;;;2.25;100.00;97293.56;5233237;28;20207;-78
2021/01/28 04:50:36;;;;;;;11.97;10.80;;;1.40;99.90;;;2.25;99.01;97281.81;5243419;28;20204;-77
2021/01/28 04:53:15;;;;;;;12.83;10.73;;;1.40;99.90;;;2.19;99.41;97275.44;5253901;28;20181;-77
2021/01/28 04:55:50;;;;;;;11.70;10.57;;;1.40;99.90;;;2.12;98.76;97274.06;5248711;28;20213;-77
2021/01/28 04:58:22;;;;;;;11.50;10.30;;;1.30;99.90;;;2.14;99.44;97275.06;5254549;28;20207;-78
2021/01/28 05:00:55;;;;;;;12.13;10.63;;;1.40;99.90;;;2.17;99.29;97267.72;5241083;28;20196;-78
2021/01/28 05:03:37;;;;;;;12.00;10.83;;;1.40;99.90;;;2.19;99.02;97271.25;5244174;28;20211;-77
2021/01/28 05:06:11;;;;;;;11.27;10.00;;;1.50;99.90;;;2.23;99.61;97264.81;5250097;28;20216;-77
2021/01/28 05:08:43;;;;;;;11.20;10.07;;;1.50;99.90;;;2.30;99.46;97243.50;5250600;28;20217;-79
2021/01/28 05:11:26;;;;;;;11.73;10.53;;;1.50;99.90;;;2.34;99.74;97235.41;5251933;28;20204;-79
2021/01/28 05:14:15;;;;;;;11.40;10.30;;;1.50;99.90;;;2.34;99.01;97235.41;5253512;28;20203;-77
2021/01/28 05:16:51;;;;;;;10.33;9.33;;;1.40;99.90;;;2.33;99.59;97223.56;5241864;28;20298;-78
2021/01/28 05:19:43;;;;;;;11.43;10.17;;;1.50;99.90;;;2.33;98.84;97218.53;5244157;28;20189;-77
2021/01/28 05:22:24;;;;;;;10.97;9.97;;;1.50;99.90;;;2.32;99.20;97209.19;5242564;28;20280;-77
2021/01/28 05:25:00;;;;;;;11.63;10.53;;;1.50;99.90;;;2.34;99.21;97213.59;5235282;28;20228;-77
2021/01/28 05:27:35;;;;;;;10.53;9.63;;;1.40;99.90;;;2.27;98.25;97211.38;5232426;28;20208;-77
2021/01/28 05:30:15;;;;;;;11.23;10.13;;;1.40;99.90;;;2.20;98.34;97207.50;5232993;28;20570;-77
2021/01/28 05:32:49;;;;;;;11.20;10.10;;;1.40;99.90;;;2.20;98.74;97212.53;5240666;28;20561;-77
2021/01/28 05:35:29;;;;;;;11.03;10.03;;;1.40;99.90;;;2.30;98.24;97203.16;5236838;28;20219;-77
2021/01/28 05:38:09;;;;;;;10.20;9.27;;;1.30;99.90;;;2.24;98.39;97199.41;5233997;28;20196;-77
2021/01/28 05:40:54;;;;;;;11.43;10.33;;;1.30;99.90;;;2.21;97.46;97189.09;5237807;28;20193;-78
2021/01/28 05:43:35;;;;;;;13.17;11.77;;;1.30;99.90;;;2.05;96.99;97191.16;5253099;28;20200;-77
2021/01/28 05:46:16;;;;;;;11.90;10.70;;;1.30;99.90;;;1.97;97.99;97182.13;5242278;28;20696;-78
2021/01/28 05:49:08;;;;;;;13.93;11.83;;;1.30;99.90;;;2.02;97.21;97183.38;5231507;28;20244;-77
2021/01/28 05:51:45;;;;;;;13.23;11.47;;;1.30;99.90;;;2.07;97.75;97174.53;5246456;28;20208;-78
2021/01/28 05:54:21;;;;;;;13.13;11.83;;;1.30;99.90;;;2.10;97.29;97174.75;5247515;28;20199;-77
2021/01/28 05:57:07;;;;;;;13.10;11.63;;;1.40;99.90;;;2.08;98.00;97176.28;5251052;28;20307;-77
2021/01/28 05:59:49;;;;;;;12.37;11.07;;;1.40;99.90;;;2.09;98.51;97174.63;5257028;28;20250;-77
2021/01/28 06:03:12;;;;;;;12.20;10.07;;;1.40;99.90;;;2.18;99.05;97182.94;5239439;28;20290;-77
2021/01/28 06:06:00;;;;;;;10.23;9.13;;;1.40;99.90;;;2.17;98.55;97171.06;5205386;28;20223;-77
2021/01/28 06:08:54;;;;;;;9.30;8.50;;;1.40;99.90;;;2.17;97.65;97156.81;5252664;28;20216;-76
2021/01/28 06:12:10;;;;;;;9.57;8.67;;;1.40;99.90;;;2.04;98.12;97156.66;5245653;28;20652;-77
2021/01/28 06:15:15;;;;;;;9.30;8.30;;;1.30;99.90;;;2.07;98.61;97154.38;5240429;28;20227;-77
2021/01/28 06:18:17;;;;;;;9.67;8.57;;;1.30;99.90;;;2.11;98.47;97141.22;5240610;28;20185;-76
2021/01/28 06:21:51;;;;;;;10.33;9.27;;;1.40;99.90;;;2.06;98.07;97132.47;5239149;28;20189;-76
2021/01/28 06:24:57;;;;;;;11.73;10.47;;;1.40;99.90;;;2.10;98.75;97118.44;5237742;28;20268;-77
2021/01/28 06:27:58;;;;;;;12.23;10.60;;;1.40;99.90;;;2.16;98.60;97118.91;5240512;28;20670;-77
2021/01/28 06:30:46;;;;;;;12.43;11.03;;;1.40;99.90;;;2.13;98.85;97114.50;5255471;28;20212;-78
2021/01/28 06:33:35;;;;;;;14.57;12.47;;;1.40;99.90;;;2.09;98.49;97102.44;5239329;28;20204;-77
2021/01/28 06:36:20;;;;;;;14.17;12.43;;;1.40;99.90;;;2.13;99.26;97109.47;5233385;28;20316;-77
2021/01/28 06:39:21;;;;;;;14.73;12.63;;;1.40;99.90;;;2.11;98.63;97100.03;5234780;28;20193;-77
2021/01/28 06:42:05;;;;;;;13.60;12.13;;;1.40;99.90;;;2.14;99.14;97093.56;5235676;28;20756;-78
2021/01/28 06:44:44;;;;;;;12.30;10.97;;;1.40;99.90;;;2.16;98.82;97097.09;5242758;28;20555;-77
2021/01/28 06:47:20;;;;;;;12.07;10.87;;;1.40;99.90;;;2.11;98.50;97087.44;5235128;28;20217;-78
2021/01/28 06:50:02;;;;;;;11.90;10.13;;;1.50;99.90;;;2.18;98.67;97088.03;5235710;28;20196;-77
2021/01/28 06:52:51;;;;;;;10.93;9.83;;;1.50;99.90;;;2.17;98.30;97081.19;5227844;28;20208;-77
2021/01/28 06:55:35;;;;;;;12.47;10.77;;;1.50;99.90;;;2.14;98.82;97075.94;5228244;28;20223;-77
2021/01/28 06:58:34;;;;;;;13.07;11.60;;;1.50;99.90;;;2.15;98.12;97077.72;5228893;28;20218;-76
2021/01/28 07:01:16;;;;;;;13.13;11.73;;;1.50;99.90;;;2.17;98.77;97068.59;5232952;28;20193;-77
2021/01/28 07:04:02;;;;;;;14.17;12.67;;;1.50;99.90;;;2.17;98.99;97080.31;5239290;28;20200;-77
2021/01/28 07:06:43;;;;;;;15.20;12.47;;;1.50;99.90;;;2.18;98.62;97060.28;5247946;28;20599;-75
2021/01/28 07:09:28;;;;;;;14.30;12.80;;;1.50;99.90;;;2.17;98.28;97050.97;5248714;28;20585;-77
2021/01/28 07:12:05;;;;;;;14.30;12.43;;;1.40;99.90;;;2.17;99.59;97050.09;5246169;28;20699;-77
2021/01/28 07:14:38;;;;;;;13.57;12.17;;;1.50;99.90;;;2.20;99.86;97045.28;5249144;28;20661;-77
2021/01/28 07:17:16;;;;;;;12.73;11.43;;;1.50;99.90;;;2.23;99.06;97051.44;5247987;28;20196;-76
2021/01/28 07:19:53;;;;;;;14.17;12.03;;;1.50;99.90;;;2.27;99.52;97039.06;5237345;28;20193;-76
2021/01/28 07:22:32;;;;;;;13.23;11.83;;;1.60;99.90;;;2.29;99.60;97040.03;5242294;28;20290;-77
2021/01/28 07:25:27;;;;;;;11.70;10.50;;;1.60;99.90;;;2.32;99.18;97035.22;5242630;28;20760;-78
2021/01/28 07:28:04;;;;;;;13.20;11.03;;;1.60;99.90;;;2.29;99.39;97032.47;5237186;28;20209;-77
2021/01/28 07:30:41;;;;;;;12.57;11.27;;;1.60;99.90;;;2.36;98.88;97025.50;5247367;28;20196;-77
2021/01/28 07:33:35;;;;;;;11.50;10.30;;;1.60;99.90;;;2.30;98.78;97020.00;5238779;28;20203;-76
2021/01/28 07:36:46;;;;;;;11.67;10.37;;;1.60;99.90;;;2.35;99.31;97012.78;5233012;28;20213;-77
2021/01/28 07:39:41;;;;;;;11.43;10.33;;;1.60;99.90;;;2.33;99.26;97011.78;5228454;28;20192;-77
2021/01/28 07:42:28;;;;;;;11.57;10.47;;;1.60;99.90;;;2.27;99.37;96998.72;5234410;28;20192;-77
2021/01/28 07:45:29;;;;;;;11.73;10.53;;;1.60;99.90;;;2.33;99.42;97001.72;5244501;28;20246;-76
2021/01/28 07:48:01;;;;;;;12.17;10.67;;;1.60;99.90;;;2.34;99.17;97000.94;5227383;28;20220;-77
2021/01/28 07:50:41;;;;;;;12.47;11.17;;;1.60;99.90;;;2.27;98.32;96983.63;5235190;28;20212;-76
2021/01/28 07:53:41;;;;;;;11.07;9.97;;;1.60;99.90;;;2.33;99.01;96987.44;5247104;28;20204;-76
2021/01/28 07:56:57;;;;;;;10.77;9.60;;;1.60;99.90;;;2.33;99.37;96966.41;5246468;28;20233;-77
2021/01/28 07:59:42;;;;;;;9.80;8.47;;;1.50;99.90;;;2.31;99.14;96962.88;5244778;28;20277;-76
2021/01/28 08:02:22;;;;;;;9.67;8.67;;;1.60;99.90;;;2.38;99.03;96960.94;5240508;28;20681;-77
2021/01/28 08:05:00;;;;;;;9.57;8.67;;;1.70;99.90;;;2.43;99.31;96951.16;5239394;28;20307;-77
2021/01/28 08:07:38;;;;;;;8.87;7.93;;;1.70;99.90;;;2.31;98.74;96946.13;5244637;28;20216;-77
2021/01/28 08:10:25;;;;;;;9.07;7.43;;;1.60;99.90;;;2.32;99.36;96947.00;5226784;28;20251;-76
2021/01/28 08:13:02;;;;;;;8.40;7.70;;;1.60;99.90;;;2.33;99.93;96938.69;5226078;28;20306;-77
2021/01/28 08:15:40;;;;;;;10.13;8.70;;;1.60;99.90;;;2.37;99.97;96940.66;5226053;28;20709;-77
2021/01/28 08:18:17;;;;;;;8.80;7.90;;;1.60;99.90;;;2.42;99.60;96931.78;5227673;28;20190;-77
2021/01/28 08:21:02;;;;;;;8.83;7.93;;;1.70;99.90;;;2.41;98.86;96935.06;5235685;28;20230;-78
2021/01/28 08:23:36;;;;;;;10.00;8.17;;;1.60;99.90;;;2.40;99.17;96921.56;5245557;28;20207;-77
2021/01/28 08:26:11;;;;;;;7.80;7.00;;;1.70;99.90;;;2.45;99.76;96914.34;5245782;28;20235;-77
2021/01/28 08:28:45;;;;;;;13.13;10.27;;;1.80;99.90;;;2.44;99.01;96907.56;5229506;28;20719;-77
2021/01/28 08:31:23;;;;;;;10.27;8.73;;;1.70;99.90;;;2.43;99.10;96903.25;5224849;28;20557;-76
2021/01/28 08:33:58;;;;;;;13.00;11.63;;;1.70;99.90;;;2.51;98.26;96892.09;5225148;28;20201;-76
2021/01/28 08:36:41;;;;;;;13.70;10.57;;;1.80;99.90;;;2.58;98.21;96899.34;5224967;28;20252;-76
2021/01/28 08:39:18;;;;;;;14.03;10.73;;;1.80;99.90;;;2.43;97.92;96898.22;5245213;28;20196;-76
2021/01/28 08:42:02;;;;;;;12.23;9.87;;;1.80;99.90;;;2.42;98.24;96877.19;5245263;28;20204;-77
2021/01/28 08:44:35;;;;;;;11.87;8.43;;;1.70;99.90;;;2.43;98.11;96867.97;5245388;28;20253;-76
2021/01/28 08:47:13;;;;;;;15.53;10.30;;;1.80;99.90;;;2.42;98.86;96866.22;5239162;28;20282;-77
2021/01/28 08:50:00;;;;;;;12.50;8.90;;;1.70;99.90;;;2.37;98.81;96857.44;5224875;28;20697;-76
2021/01/28 08:52:32;;;;;;;14.13;10.80;;;1.80;99.90;;;2.43;99.22;96850.31;5224572;28;20236;-77
2021/01/28 08:55:11;;;;;;;13.67;11.30;;;1.80;99.90;;;2.52;99.44;96843.44;5226998;28;20213;-76
2021/01/28 08:57:43;;;;;;;12.67;11.37;;;1.90;99.90;;;2.51;99.38;96839.13;5233428;28;20199;-76
2021/01/28 09:00:21;;;;;;;14.10;11.30;;;1.80;99.90;;;2.52;100.00;96822.34;5233753;28;20199;-76
2021/01/28 09:02:56;;;;;;;18.23;14.43;;;1.80;99.90;;;2.52;99.67;96818.22;5227194;28;20242;-77
2021/01/28 09:05:32;;;;;;;15.27;12.87;;;1.80;99.90;;;2.54;99.44;96810.72;5232772;28;20211;-76
2021/01/28 09:08:08;;;;;;;12.93;11.33;;;1.80;99.90;;;2.43;99.71;96798.25;5229861;28;20681;-76
2021/01/28 09:10:42;;;;;;;13.00;10.57;;;1.80;99.90;;;2.48;99.63;96793.53;5223885;28;20665;-78
2021/01/28 09:13:22;;;;;;;12.23;10.73;;;1.80;99.90;;;2.52;100.00;96793.00;5223950;28;20204;-77
2021/01/28 09:16:11;;;;;;;15.37;12.93;;;1.90;99.90;;;2.46;100.00;96774.88;5224726;28;20693;-76
2021/01/28 09:18:47;;;;;;;13.13;11.80;;;1.80;99.90;;;2.58;100.00;96780.81;5235501;28;20266;-78
2021/01/28 09:21:22;;;;;;;15.03;13.53;;;1.90;99.90;;;2.58;99.50;96777.41;5223082;28;20203;-77
2021/01/28 09:23:56;;;;;;;14.63;12.53;;;1.90;99.90;;;2.50;99.34;96769.31;5224887;28;20254;-75
2021/01/28 09:26:32;;;;;;;15.10;11.80;;;1.90;99.90;;;2.55;99.96;96777.16;5229289;28;20259;-76
2021/01/28 09:29:08;;;;;;;11.97;10.77;;;1.80;99.90;;;2.63;99.48;96768.50;5246433;28;20227;-77
2021/01/28 09:31:43;;;;;;;11.03;9.37;;;1.90;99.90;;;2.56;99.30;96763.81;5256554;28;20204;-76
2021/01/28 09:34:24;;;;;;;14.20;11.07;;;1.90;99.90;;;2.52;99.75;96757.69;5234841;28;20677;-77
2021/01/28 09:36:59;;;;;;;12.20;10.53;;;1.90;99.90;;;2.56;99.90;96754.59;5229331;28;20216;-77
2021/01/28 09:39:35;;;;;;;12.50;10.90;;;1.90;99.90;;;2.67;99.97;96753.69;5237803;28;20218;-77
2021/01/28 09:42:25;;;;;;;12.63;11.37;;;2.00;99.90;;;2.77;100.00;96745.09;5244295;28;20196;-77
2021/01/28 09:45:11;;;;;;;17.20;15.40;;;2.10;99.90;;;2.84;100.00;96752.31;5231369;28;20228;-77
2021/01/28 09:47:52;;;;;;;16.87;14.63;;;2.10;99.90;;;2.89;100.00;96747.56;5231351;28;20213;-77
2021/01/28 09:50:26;;;;;;;16.23;14.63;;;2.10;99.90;;;2.92;100.00;96740.25;5247322;28;20274;-78
2021/01/28 09:52:58;;;;;;;16.20;14.17;;;2.10;99.90;;;2.96;100.00;96747.22;5249652;28;20204;-77
2021/01/28 09:55:33;;;;;;;13.87;12.47;;;2.20;99.90;;;2.98;100.00;96744.84;5249477;28;20299;-76
2021/01/28 09:58:07;;;;;;;14.10;12.60;;;2.20;99.90;;;2.92;100.00;96742.78;5248846;28;20708;-77
2021/01/28 10:00:39;;;;;;;12.30;11.10;;;2.20;99.90;;;2.94;99.78;96748.78;5234566;28;20203;-77
2021/01/28 10:03:14;;;;;;;12.63;11.33;;;2.20;99.90;;;2.94;99.96;96733.63;5249305;28;20323;-76
2021/01/28 10:05:48;;;;;;;12.50;11.30;;;2.20;99.90;;;2.96;100.00;96737.13;5250248;28;20310;-77
2021/01/28 10:08:20;;;;;;;21.83;18.33;;;2.20;99.90;;;2.91;100.00;96733.41;5241561;28;20215;-77
2021/01/28 10:10:52;;;;;;;15.30;13.60;;;2.20;99.90;;;2.91;99.96;96733.41;5232022;28;20643;-77
2021/01/28 10:13:24;;;;;;;15.10;12.93;;;2.20;99.90;;;2.91;100.00;96723.34;5238075;28;20231;-77
2021/01/28 10:15:56;;;;;;;12.27;11.07;;;2.20;99.90;;;2.91;99.66;96713.25;5243329;28;20214;-78
2021/01/28 10:18:29;;;;;;;12.60;11.33;;;2.20;99.90;;;2.97;100.00;96711.13;5234775;28;20207;-77
2021/01/28 10:21:02;;;;;;;13.37;11.47;;;2.20;99.90;;;2.96;99.72;96709.38;5237967;28;20287;-77
2021/01/28 10:23:34;;;;;;;16.73;13.97;;;2.20;99.90;;;2.95;100.00;96717.75;5247281;28;20193;-77
2021/01/28 10:26:06;;;;;;;30.07;23.17;;;2.30;99.90;;;2.96;99.96;96701.81;5235632;28;20322;-77
2021/01/28 10:28:38;;;;;;;22.40;20.03;;;2.30;99.90;;;3.02;100.00;96704.75;5228426;28;20224;-76
2021/01/28 10:31:10;;;;;;;19.73;17.73;;;2.30;99.90;;;3.01;100.00;96715.63;5228498;28;20199;-77
2021/01/28 10:33:42;;;;;;;20.70;16.77;;;2.30;99.90;;;3.04;100.00;96708.25;5231566;28;20720;-76
2021/01/28 10:36:17;;;;;;;18.23;16.20;;;2.30;99.90;;;3.10;100.00;96706.13;5228116;28;20270;-77
2021/01/28 10:38:49;;;;;;;17.67;14.67;;;2.40;99.90;;;3.05;99.68;96704.94;5239274;28;20215;-77
2021/01/28 10:41:21;;;;;;;18.47;15.07;;;2.30;99.90;;;2.99;100.00;96714.63;5231750;28;20217;-77
2021/01/28 10:43:53;;;;;;;21.23;17.03;;;2.30;99.90;;;3.02;100.00;96712.31;5233928;28;20588;-78
2021/01/28 10:46:26;;;;;;;17.43;15.60;;;2.20;99.90;;;2.99;99.60;96712.09;5232938;28;20284;-77
2021/01/28 10:48:58;;;;;;;22.37;17.23;;;2.30;99.90;;;2.96;100.00;96699.28;5242032;28;20214;-78
2021/01/28 10:51:31;;;;;;;21.13;17.37;;;2.20;99.90;;;3.00;99.81;96687.75;5239928;28;20219;-78
2021/01/28 10:54:04;;;;;;;33.87;23.63;;;2.30;99.90;;;3.02;100.00;96694.66;5231593;28;20581;-76
2021/01/28 10:56:36;;;;;;;63.97;37.13;;;2.30;99.90;;;3.07;100.00;96693.31;5230092;28;20723;-77
2021/01/28 10:59:08;;;;;;;35.50;24.70;;;2.40;99.90;;;3.12;100.00;96681.88;5234904;28;20194;-77
2021/01/28 11:01:40;;;;;;;21.87;17.33;;;2.50;99.90;;;3.23;100.00;96681.69;5237021;28;20726;-76
2021/01/28 11:04:12;;;;;;;19.90;17.00;;;2.50;99.90;;;3.25;100.00;96670.06;5239971;28;20201;-77